Time;durP1;ratioP1;P1;durP2;ratioP2;P2;SDS_P1;SDS_P2;PMS_P1;PMS_P2;Temp;Humidity;BMP_temperature;BMP_pressure;BME280_temperature;BME280_humidity;BME280_pressure;Samples;Min_cycle;Max_cycle;Signal;HPM_P1;HPM_P2
2022/04/26 03:36:18;;;;;;;;;41.25;35.00;;;;;-143.93;100.00;62969.28;5006243;28;8825;-66
2022/04/26 03:38:47;;;;;;;;;40.25;33.50;;;;;-143.93;100.00;62969.28;5007824;28;8823;-66
2022/04/26 03:41:13;;;;;;;;;36.50;32.50;;;;;-143.93;100.00;62969.28;5007756;28;9549;-66
2022/04/26 03:43:38;;;;;;;;;33.00;26.75;;;;;-143.93;100.00;62969.28;5009706;28;8890;-66
2022/04/26 03:46:04;;;;;;;;;39.00;35.00;;;;;-143.93;100.00;62969.28;5007724;28;9577;-68
2022/04/26 03:48:29;;;;;;;;;38.00;32.25;;;;;-143.93;100.00;62969.28;5007925;28;8817;-68
2022/04/26 03:50:55;;;;;;;;;45.75;33.75;;;;;-143.93;100.00;62969.28;5007256;28;8833;-68
2022/04/26 03:53:20;;;;;;;;;44.50;35.00;;;;;-143.93;100.00;62969.28;5007468;28;8849;-68
2022/04/26 03:55:46;;;;;;;;;45.50;31.75;;;;;-143.93;100.00;62969.28;5009614;28;8846;-68
2022/04/26 03:58:12;;;;;;;;;41.00;33.50;;;;;-143.93;100.00;62969.28;5007316;28;8809;-68
2022/04/26 04:00:38;;;;;;;;;40.75;33.25;;;;;-143.93;100.00;62969.28;5006284;28;8821;-68
2022/04/26 04:03:04;;;;;;;;;42.25;35.75;;;;;-143.93;100.00;62969.28;5007624;28;8829;-68
2022/04/26 04:05:29;;;;;;;;;51.25;35.50;;;;;-143.93;100.00;62969.28;5007357;28;8883;-68
2022/04/26 04:07:54;;;;;;;;;44.00;33.50;;;;;-143.93;100.00;62969.28;5008765;28;9564;-68
2022/04/26 04:10:20;;;;;;;;;42.00;33.25;;;;;-143.93;100.00;62969.28;5008235;28;8809;-68
2022/04/26 04:12:45;;;;;;;;;44.75;35.50;;;;;-143.93;100.00;62969.28;5007341;28;8825;-68
2022/04/26 04:15:10;;;;;;;;;44.50;35.25;;;;;-143.93;100.00;62969.28;5005734;28;9719;-68
2022/04/26 04:17:36;;;;;;;;;40.75;33.75;;;;;-143.93;100.00;62969.28;5007328;28;8997;-68
2022/04/26 04:20:02;;;;;;;;;42.00;36.25;;;;;-143.93;100.00;62969.28;5008177;28;8809;-68
2022/04/26 04:22:27;;;;;;;;;46.00;36.25;;;;;-143.93;100.00;62969.28;5009043;28;9010;-68
2022/04/26 04:24:53;;;;;;;;;50.50;37.00;;;;;-143.93;100.00;62969.28;5007145;28;8821;-68
2022/04/26 04:27:18;;;;;;;;;48.75;38.00;;;;;-143.93;100.00;62969.28;5007209;28;8844;-68
2022/04/26 04:29:47;;;;;;;;;49.00;35.25;;;;;-143.93;100.00;62969.28;5007473;28;9001;-68
2022/04/26 04:32:12;;;;;;;;;50.50;37.50;;;;;-143.93;100.00;62969.28;5021669;28;9026;-68
2022/04/26 04:34:38;;;;;;;;;46.25;38.00;;;;;-143.93;100.00;62969.28;5009006;28;8930;-68
2022/04/26 04:37:03;;;;;;;;;41.50;34.75;;;;;-143.93;100.00;62969.28;5006936;28;8833;-68
2022/04/26 04:39:28;;;;;;;;;53.00;37.75;;;;;-143.93;100.00;62969.28;5006942;28;8837;-68
2022/04/26 04:41:54;;;;;;;;;43.75;36.50;;;;;-143.93;100.00;62969.28;5006963;28;8848;-68
2022/04/26 04:44:21;;;;;;;;;50.50;37.25;;;;;-143.93;100.00;62969.28;5006651;28;8877;-68
2022/04/26 04:46:47;;;;;;;;;50.25;35.50;;;;;-143.93;100.00;62969.28;5020194;28;8801;-68
2022/04/26 04:49:13;;;;;;;;;44.25;37.75;;;;;-143.93;100.00;62969.28;5006828;28;8801;-69
2022/04/26 04:51:38;;;;;;;;;56.75;38.25;;;;;-143.93;100.00;62969.28;5006974;28;8849;-68
2022/04/26 04:54:04;;;;;;;;;41.75;34.00;;;;;-143.93;100.00;62969.28;5005056;28;8841;-68
2022/04/26 04:56:30;;;;;;;;;53.50;40.75;;;;;-143.93;100.00;62969.28;5006838;28;9615;-68
2022/04/26 04:58:56;;;;;;;;;45.25;37.25;;;;;-143.93;100.00;62969.28;5008133;28;8874;-68
2022/04/26 05:01:21;;;;;;;;;43.75;36.75;;;;;-143.93;100.00;62969.28;5007064;28;8833;-68
2022/04/26 05:03:46;;;;;;;;;49.00;39.75;;;;;-143.93;100.00;62969.28;5006513;28;8817;-68
2022/04/26 05:06:14;;;;;;;;;52.25;37.75;;;;;-143.93;100.00;62969.28;5006452;28;8841;-69
2022/04/26 05:08:40;;;;;;;;;51.50;40.50;;;;;-143.93;100.00;62969.28;5007166;28;9611;-68
2022/04/26 05:11:06;;;;;;;;;58.25;37.25;;;;;-143.93;100.00;62969.28;5006572;28;8824;-68
2022/04/26 05:13:31;;;;;;;;;51.50;38.00;;;;;-143.93;100.00;62969.28;5008771;28;8798;-68
2022/04/26 05:15:57;;;;;;;;;52.00;38.50;;;;;-143.93;100.00;62969.28;5006531;28;8826;-68
2022/04/26 05:18:22;;;;;;;;;49.50;39.25;;;;;-143.93;100.00;62969.28;5005273;28;8821;-68
2022/04/26 05:20:47;;;;;;;;;55.25;40.00;;;;;-143.93;100.00;62969.28;5006732;28;8809;-68
2022/04/26 05:25:56;;;;;;;;;48.50;37.50;;;;;-143.93;100.00;62969.28;5005132;28;9576;-68
2022/04/26 05:28:22;;;;;;;;;51.75;40.25;;;;;-143.93;100.00;62969.28;5007412;28;8835;-66
2022/04/26 05:30:47;;;;;;;;;50.25;37.50;;;;;-143.93;100.00;62969.28;5004626;28;8817;-67
2022/04/26 05:33:13;;;;;;;;;56.00;40.00;;;;;-143.93;100.00;62969.28;5006270;28;8825;-69
2022/04/26 05:35:39;;;;;;;;;44.00;35.00;;;;;-143.93;100.00;62969.28;5006516;28;8856;-68
2022/04/26 05:38:04;;;;;;;;;56.00;40.50;;;;;-143.93;100.00;62969.28;5006443;28;8850;-69
2022/04/26 05:40:29;;;;;;;;;53.50;41.25;;;;;-143.93;100.00;62969.28;5008191;28;8786;-69
2022/04/26 05:42:55;;;;;;;;;59.25;41.25;;;;;-143.93;100.00;62969.28;5006574;28;8928;-69
2022/04/26 05:45:21;;;;;;;;;52.25;39.75;;;;;-143.93;100.00;62969.28;5006240;28;8939;-69
2022/04/26 05:47:47;;;;;;;;;55.25;43.00;;;;;-143.93;100.00;62969.28;5006273;28;8797;-69
2022/04/26 05:50:13;;;;;;;;;57.75;43.25;;;;;-143.93;100.00;62969.28;5002863;28;8918;-67
2022/04/26 05:52:38;;;;;;;;;55.50;41.00;;;;;-143.93;100.00;62969.28;4998606;28;8913;-69
2022/04/26 05:55:05;;;;;;;;;52.00;40.75;;;;;-143.93;100.00;62969.28;4994898;28;8876;-66
2022/04/26 05:57:31;;;;;;;;;59.50;44.75;;;;;-143.93;100.00;62969.28;5003913;27;9606;-66
2022/04/26 05:59:56;;;;;;;;;53.75;40.75;;;;;-143.93;100.00;62969.28;5019070;28;8796;-68
2022/04/26 06:02:21;;;;;;;;;54.00;41.25;;;;;-143.93;100.00;62969.28;5005400;28;8830;-68
2022/04/26 06:04:47;;;;;;;;;63.00;42.25;;;;;-143.93;100.00;62969.28;5010232;28;8811;-68
2022/04/26 06:07:12;;;;;;;;;56.50;45.25;;;;;-143.93;100.00;62969.28;5000171;28;9564;-68
2022/04/26 06:09:38;;;;;;;;;62.75;46.75;;;;;-143.93;100.00;62969.28;4999066;28;8855;-68
2022/04/26 06:12:04;;;;;;;;;62.50;47.00;;;;;-143.93;100.00;62969.28;5003891;28;8836;-68
2022/04/26 06:14:30;;;;;;;;;59.75;46.25;;;;;-143.93;100.00;62969.28;5012332;28;8813;-68
2022/04/26 06:16:55;;;;;;;;;63.75;45.75;;;;;-143.93;100.00;62969.28;5009763;28;9600;-68
2022/04/26 06:19:21;;;;;;;;;58.75;44.25;;;;;-143.93;100.00;62969.28;5002466;28;8848;-68
2022/04/26 06:21:46;;;;;;;;;68.00;48.50;;;;;-143.93;100.00;62969.28;4995326;28;8816;-68
2022/04/26 06:24:11;;;;;;;;;62.25;47.75;;;;;-143.93;100.00;62969.28;5002835;28;9530;-68
2022/04/26 06:26:37;;;;;;;;;61.25;46.75;;;;;-143.93;100.00;62969.28;5010552;28;8833;-68
2022/04/26 06:29:03;;;;;;;;;67.75;49.25;;;;;-143.93;100.00;62969.28;5002651;28;8863;-67
2022/04/26 06:31:28;;;;;;;;;53.25;42.00;;;;;-143.93;100.00;62969.28;5007808;28;8814;-68
2022/04/26 06:33:53;;;;;;;;;65.33;47.33;;;;;-143.93;100.00;62969.28;5016225;28;8813;-67
2022/04/26 06:36:19;;;;;;;;;67.00;44.67;;;;;-143.93;100.00;62969.28;4999158;28;19092;-67
2022/04/26 06:38:44;;;;;;;;;66.00;45.75;;;;;-143.93;100.00;62969.28;5014445;28;9442;-68
2022/04/26 06:41:09;;;;;;;;;63.33;47.33;;;;;-143.93;100.00;62969.28;4998424;28;16396;-68
2022/04/26 06:43:35;;;;;;;;;64.25;43.75;;;;;-143.93;100.00;62969.28;4991818;28;11399;-68
2022/04/26 06:46:01;;;;;;;;;61.75;45.50;;;;;-143.93;100.00;62969.28;4999388;28;8813;-68
2022/04/26 06:48:27;;;;;;;;;62.50;45.00;;;;;-143.93;100.00;62969.28;4996896;28;8885;-68
2022/04/26 06:50:56;;;;;;;;;61.25;46.25;;;;;-143.93;100.00;62969.28;4991397;28;8829;-69
2022/04/26 06:53:21;;;;;;;;;64.25;48.00;;;;;-143.93;100.00;62969.28;5004481;28;8854;-68
2022/04/26 06:55:47;;;;;;;;;65.75;48.25;;;;;-143.93;100.00;62969.28;4999732;28;8817;-68
2022/04/26 06:58:12;;;;;;;;;65.00;50.00;;;;;-143.93;100.00;62969.28;5004791;28;8899;-69
2022/04/26 07:00:38;;;;;;;;;59.25;45.50;;;;;-143.93;100.00;62969.28;5015777;28;8837;-68
2022/04/26 07:03:04;;;;;;;;;64.00;46.00;;;;;-143.93;100.00;62969.28;5013382;28;9337;-68
2022/04/26 07:05:30;;;;;;;;;75.50;57.25;;;;;-143.93;100.00;62969.28;5003317;28;8824;-68
2022/04/26 07:07:55;;;;;;;;;61.50;46.25;;;;;-143.93;100.00;62969.28;5006136;28;8917;-68
2022/04/26 07:10:24;;;;;;;;;61.00;46.25;;;;;-143.93;100.00;62969.28;5005544;28;20297;-68
2022/04/26 07:12:50;;;;;;;;;64.25;47.25;;;;;-143.93;100.00;62969.28;5001319;28;8989;-68
2022/04/26 07:15:15;;;;;;;;;64.00;47.50;;;;;-143.93;100.00;62969.28;5000812;28;8938;-68
2022/04/26 07:17:41;;;;;;;;;64.50;48.00;;;;;-143.93;100.00;62969.28;5014930;28;9595;-68
2022/04/26 07:20:11;;;;;;;;;67.75;48.00;;;;;-143.93;100.00;62969.28;5020167;28;8838;-68
2022/04/26 07:22:36;;;;;;;;;63.75;48.50;;;;;-143.93;100.00;62969.28;5012268;28;9607;-68
2022/04/26 07:25:11;;;;;;;;;63.75;47.00;;;;;-143.93;100.00;62969.28;5008292;28;8833;-68
2022/04/26 07:27:36;;;;;;;;;64.00;48.25;;;;;-143.93;100.00;62969.28;5032237;28;8799;-68
2022/04/26 07:30:03;;;;;;;;;61.75;44.50;;;;;-143.93;100.00;62969.28;4995701;27;14475;-68
2022/04/26 07:35:12;;;;;;;;;66.75;47.75;;;;;-143.93;100.00;62969.28;5007308;28;8825;-68
2022/04/26 07:37:38;;;;;;;;;65.25;48.25;;;;;-143.93;100.00;62969.28;4995523;28;8889;-68
2022/04/26 07:40:04;;;;;;;;;57.25;45.25;;;;;-143.93;100.00;62969.28;4993223;28;8808;-68
2022/04/26 07:42:30;;;;;;;;;63.25;46.75;;;;;-143.93;100.00;62969.28;4997309;28;8805;-68
2022/04/26 07:44:55;;;;;;;;;61.00;45.00;;;;;-143.93;100.00;62969.28;5003450;28;8843;-67
2022/04/26 07:47:24;;;;;;;;;63.75;47.00;;;;;-143.93;100.00;62969.28;5007684;28;8800;-68
2022/04/26 07:49:50;;;;;;;;;129.00;108.50;;;;;-143.93;100.00;62969.28;5005601;28;8811;-68
2022/04/26 07:52:16;;;;;;;;;66.75;46.50;;;;;-143.93;100.00;62969.28;4993419;28;8824;-68
2022/04/26 07:54:42;;;;;;;;;62.75;48.00;;;;;-143.93;100.00;62969.28;4998978;28;8855;-69
2022/04/26 07:57:07;;;;;;;;;62.25;48.00;;;;;-143.93;100.00;62969.28;4997469;28;8884;-68
2022/04/26 07:59:32;;;;;;;;;63.75;46.50;;;;;-143.93;100.00;62969.28;5022267;28;8838;-68
2022/04/26 08:01:58;;;;;;;;;64.25;46.75;;;;;-143.93;100.00;62969.28;4991943;28;8842;-68
2022/04/26 08:04:23;;;;;;;;;67.67;49.00;;;;;-143.93;100.00;62969.28;5004237;28;8802;-68
2022/04/26 08:06:48;;;;;;;;;63.75;48.50;;;;;-143.93;100.00;62969.28;5012707;28;9173;-68
2022/04/26 08:09:14;;;;;;;;;59.33;44.33;;;;;-143.93;100.00;62969.28;5002123;28;14633;-68
2022/04/26 08:11:40;;;;;;;;;60.75;44.25;;;;;-143.93;100.00;62969.28;5002801;28;9537;-68
2022/04/26 08:14:05;;;;;;;;;57.75;45.25;;;;;-143.93;100.00;62969.28;5006325;28;8829;-69
2022/04/26 08:16:31;;;;;;;;;65.50;47.75;;;;;-143.93;100.00;62969.28;5024487;27;8814;-68
2022/04/26 08:18:57;;;;;;;;;65.50;47.00;;;;;-143.93;100.00;62969.28;4999404;28;8824;-68
2022/04/26 08:21:22;;;;;;;;;63.25;47.00;;;;;-143.93;100.00;62969.28;4994898;28;8819;-68
2022/04/26 08:29:30;;;;;;;;;60.00;45.00;;;;;-143.93;100.00;62969.28;5074929;28;8796;-68
2022/04/26 08:31:55;;;;;;;;;61.75;46.50;;;;;-143.93;100.00;62969.28;5073172;28;8817;-68
2022/04/26 08:34:22;;;;;;;;;58.25;44.75;;;;;-143.93;100.00;62969.28;5089585;28;8946;-68
2022/04/26 08:36:47;;;;;;;;;64.50;45.75;;;;;-143.93;100.00;62969.28;5081622;28;8790;-68
2022/04/26 08:39:12;;;;;;;;;57.50;44.75;;;;;-143.93;100.00;62969.28;5077622;28;8815;-68
2022/04/26 08:41:38;;;;;;;;;60.25;44.75;;;;;-143.93;100.00;62969.28;5075501;28;8835;-68
2022/04/26 08:44:10;;;;;;;;;58.50;44.25;;;;;-143.93;100.00;62969.28;5072417;28;8814;-66
2022/04/26 08:52:08;;;;;;;;;80.25;66.25;;;;;-143.93;100.00;62969.28;5077717;28;8787;-68
2022/04/26 08:54:35;;;;;;;;;54.25;42.50;;;;;-143.93;100.00;62969.28;5080933;28;8865;-67
2022/04/26 08:57:01;;;;;;;;;50.75;40.75;;;;;-143.93;100.00;62969.28;5078075;28;8897;-68
2022/04/26 08:59:27;;;;;;;;;56.75;41.00;;;;;-143.93;100.00;62969.28;5073935;28;8792;-68
2022/04/26 09:02:19;;;;;;;;;57.25;42.75;;;;;-143.93;100.00;62969.28;5086742;28;8766;-67
2022/04/26 09:04:46;;;;;;;;;53.75;42.50;;;;;-143.93;100.00;62969.28;4990409;27;9645;-68
2022/04/26 09:07:28;;;;;;;;;57.25;42.75;;;;;-143.93;100.00;62969.28;5000977;28;8808;-68
2022/04/26 09:10:12;;;;;;;;;63.00;45.00;;;;;-143.93;100.00;62969.28;4996396;28;8839;-68
2022/04/26 09:13:04;;;;;;;;;59.75;43.75;;;;;-143.93;100.00;62969.28;4995509;28;8786;-68
2022/04/26 09:15:42;;;;;;;;;54.25;41.25;;;;;-143.93;100.00;62969.28;4994218;28;8840;-67
2022/04/26 09:18:20;;;;;;;;;56.50;44.25;;;;;-143.93;100.00;62969.28;4988670;28;8874;-69
2022/04/26 09:20:48;;;;;;;;;58.50;45.25;;;;;-143.93;100.00;62969.28;4988387;28;8808;-69
2022/04/26 09:23:21;;;;;;;;;52.75;42.00;;;;;-143.93;100.00;62969.28;5001932;28;8863;-68
2022/04/26 09:25:50;;;;;;;;;59.75;42.25;;;;;-143.93;100.00;62969.28;4999823;28;9585;-68
2022/04/26 09:28:22;;;;;;;;;53.00;43.00;;;;;-143.93;100.00;62969.28;5003328;28;9572;-69
2022/04/26 09:30:48;;;;;;;;;55.75;43.25;;;;;-143.93;100.00;62969.28;4996404;28;8800;-69
2022/04/26 09:33:47;;;;;;;;;53.25;42.25;;;;;-143.93;100.00;62969.28;4991115;28;8862;-68
2022/04/26 09:36:13;;;;;;;;;53.75;43.25;;;;;-143.93;100.00;62969.28;5019666;27;8829;-69
2022/04/26 09:38:41;;;;;;;;;54.75;43.25;;;;;-143.93;100.00;62969.28;4994190;28;8842;-68
2022/04/26 09:41:09;;;;;;;;;57.50;44.75;;;;;-143.93;100.00;62969.28;4986332;28;8801;-69
2022/04/26 09:43:36;;;;;;;;;59.25;44.25;;;;;-143.93;100.00;62969.28;4998191;28;8788;-68
2022/04/26 09:46:01;;;;;;;;;55.75;41.00;;;;;-143.93;100.00;62969.28;4989743;28;9720;-69
2022/04/26 09:48:32;;;;;;;;;58.25;45.00;;;;;-143.93;100.00;62969.28;4992182;28;8837;-69
2022/04/26 09:50:58;;;;;;;;;55.50;41.25;;;;;-143.93;100.00;62969.28;4987284;28;8827;-68
2022/04/26 09:53:29;;;;;;;;;57.00;44.50;;;;;-143.93;100.00;62969.28;5001504;28;8807;-68
2022/04/26 09:55:56;;;;;;;;;60.00;45.00;;;;;-143.93;100.00;62969.28;5004117;28;9616;-68
2022/04/26 09:58:23;;;;;;;;;61.50;45.75;;;;;-143.93;100.00;62969.28;5000705;28;8837;-68
2022/04/26 10:00:50;;;;;;;;;61.00;43.25;;;;;-143.93;100.00;62969.28;4998687;28;9626;-68
2022/04/26 10:03:20;;;;;;;;;52.25;40.75;;;;;-143.93;100.00;62969.28;4998037;28;8811;-68
2022/04/26 10:05:49;;;;;;;;;54.75;42.50;;;;;-143.93;100.00;62969.28;5040468;28;9723;-68
2022/04/26 10:08:17;;;;;;;;;55.25;42.25;;;;;-143.93;100.00;62969.28;5002162;28;8820;-68
2022/04/26 10:10:43;;;;;;;;;56.75;44.00;;;;;-143.93;100.00;62969.28;5015756;28;8786;-68
2022/04/26 10:13:31;;;;;;;;;60.25;43.00;;;;;-143.93;100.00;62969.28;4998046;28;9671;-68
2022/04/26 10:16:08;;;;;;;;;54.25;44.00;;;;;-143.93;100.00;62969.28;4992447;28;8824;-68
2022/04/26 10:18:38;;;;;;;;;59.25;44.50;;;;;-143.93;100.00;62969.28;4993546;28;8828;-68
2022/04/26 10:21:04;;;;;;;;;54.75;43.00;;;;;-143.93;100.00;62969.28;4996951;28;8839;-68
2022/04/26 10:23:52;;;;;;;;;52.50;41.25;;;;;-143.93;100.00;62969.28;4987074;28;8848;-69
2022/04/26 10:26:23;;;;;;;;;58.25;43.25;;;;;-143.93;100.00;62969.28;5002753;28;8816;-68
2022/04/26 10:28:51;;;;;;;;;58.50;42.25;;;;;-143.93;100.00;62969.28;4987857;28;8792;-68
2022/04/26 10:31:17;;;;;;;;;50.25;39.50;;;;;-143.93;100.00;62969.28;4999051;28;8825;-67
2022/04/26 10:33:44;;;;;;;;;50.75;41.00;;;;;-143.93;100.00;62969.28;5004501;28;8819;-68
2022/04/26 10:36:19;;;;;;;;;52.25;40.00;;;;;-143.93;100.00;62969.28;5007081;28;8806;-69
2022/04/26 10:39:07;;;;;;;;;51.75;39.00;;;;;-143.93;100.00;62969.28;4986079;28;8829;-68
2022/04/26 10:41:44;;;;;;;;;54.75;41.00;;;;;-143.93;100.00;62969.28;4987948;28;8828;-67
2022/04/26 10:44:22;;;;;;;;;53.75;40.50;;;;;-143.93;100.00;62969.28;5005461;28;8808;-67
2022/04/26 10:46:55;;;;;;;;;56.50;42.00;;;;;-143.93;100.00;62969.28;5018228;28;8821;-67
2022/04/26 10:49:22;;;;;;;;;48.25;39.00;;;;;-143.93;100.00;62969.28;5001671;28;8801;-68
2022/04/26 10:51:48;;;;;;;;;54.50;41.00;;;;;-143.93;100.00;62969.28;5016494;28;8825;-68
2022/04/26 10:54:13;;;;;;;;;48.75;39.00;;;;;-143.93;100.00;62969.28;4997271;28;8874;-68
2022/04/26 10:56:38;;;;;;;;;50.00;39.25;;;;;-143.93;100.00;62969.28;4999916;28;10395;-67
2022/04/26 10:59:12;;;;;;;;;48.50;38.25;;;;;-143.93;100.00;62969.28;4996974;28;8908;-68
2022/04/26 11:01:38;;;;;;;;;50.25;40.00;;;;;-143.93;100.00;62969.28;4991770;28;9706;-68
2022/04/26 11:04:05;;;;;;;;;50.00;40.00;;;;;-143.93;100.00;62969.28;4993838;28;8826;-68
2022/04/26 11:06:36;;;;;;;;;47.75;36.25;;;;;-143.93;100.00;62969.28;4987936;28;8827;-68
2022/04/26 11:09:14;;;;;;;;;44.00;33.75;;;;;-143.93;100.00;62969.28;4993166;28;9013;-67
2022/04/26 11:11:51;;;;;;;;;42.75;33.25;;;;;-143.93;100.00;62969.28;4991856;28;8889;-67
2022/04/26 11:14:17;;;;;;;;;39.50;33.25;;;;;-143.93;100.00;62969.28;5017091;27;8886;-67
2022/04/26 11:16:58;;;;;;;;;43.75;33.50;;;;;-143.93;100.00;62969.28;5002301;28;8812;-67
2022/04/26 11:19:31;;;;;;;;;47.00;36.25;;;;;-143.93;100.00;62969.28;4997750;28;8942;-67
2022/04/26 11:22:04;;;;;;;;;52.50;39.25;;;;;-143.93;100.00;62969.28;4994316;28;8905;-67
2022/04/26 11:29:57;;;;;;;;;53.50;39.00;;;;;-143.93;100.00;62969.28;5035395;27;8801;-68
2022/04/26 11:32:42;;;;;;;;;53.25;41.00;;;;;-143.93;100.00;62969.28;4996290;28;8860;-68
2022/04/26 11:35:13;;;;;;;;;48.75;38.50;;;;;-143.93;100.00;62969.28;4988952;28;8892;-67
2022/04/26 11:37:53;;;;;;;;;54.50;41.00;;;;;-143.93;100.00;62969.28;4989926;28;8936;-68
2022/04/26 11:40:28;;;;;;;;;56.25;40.00;;;;;-143.93;100.00;62969.28;4991751;28;8788;-68
2022/04/26 11:42:59;;;;;;;;;50.00;38.25;;;;;-143.93;100.00;62969.28;5003110;28;8804;-67
2022/04/26 11:45:29;;;;;;;;;46.50;36.50;;;;;-143.93;100.00;62969.28;4993059;28;8882;-67
2022/04/26 11:47:56;;;;;;;;;42.25;35.50;;;;;-143.93;100.00;62969.28;4997595;28;9578;-67
2022/04/26 11:50:25;;;;;;;;;48.25;35.50;;;;;-143.93;100.00;62969.28;4999871;28;8872;-67
2022/04/26 11:52:55;;;;;;;;;45.50;37.00;;;;;-143.93;100.00;62969.28;4989071;28;8804;-67
2022/04/26 11:55:23;;;;;;;;;41.75;36.25;;;;;-143.93;100.00;62969.28;5003137;28;8809;-68
2022/04/26 11:57:50;;;;;;;;;49.75;37.25;;;;;-143.93;100.00;62969.28;5003593;28;8846;-67
2022/04/26 12:00:18;;;;;;;;;52.00;39.75;;;;;-143.93;100.00;62969.28;4999397;28;9581;-69
2022/04/26 12:02:45;;;;;;;;;49.50;40.00;;;;;-143.93;100.00;62969.28;5002447;28;8828;-68
2022/04/26 12:05:12;;;;;;;;;51.25;40.75;;;;;-143.93;100.00;62969.28;5004777;28;8844;-68
2022/04/26 12:07:38;;;;;;;;;49.50;40.00;;;;;-143.93;100.00;62969.28;4991482;28;8792;-68
2022/04/26 12:10:23;;;;;;;;;47.75;38.00;;;;;-143.93;100.00;62969.28;4990805;28;8819;-68
2022/04/26 12:12:57;;;;;;;;;48.75;35.50;;;;;-143.93;100.00;62969.28;4993207;28;8813;-69
2022/04/26 12:15:25;;;;;;;;;52.75;37.50;;;;;-143.93;100.00;62969.28;5004556;28;8805;-68
2022/04/26 12:18:08;;;;;;;;;56.50;43.00;;;;;-143.93;100.00;62969.28;5003097;28;8806;-68
2022/04/26 12:20:36;;;;;;;;;186.50;170.25;;;;;-143.93;100.00;62969.28;5002022;28;8804;-67
2022/04/26 12:23:06;;;;;;;;;47.75;36.75;;;;;-143.93;100.00;62969.28;5009058;28;11578;-68
2022/04/26 12:25:35;;;;;;;;;47.00;37.25;;;;;-143.93;100.00;62969.28;5004788;28;8876;-69
2022/04/26 12:28:09;;;;;;;;;46.50;36.25;;;;;-143.93;100.00;62969.28;5016613;28;8930;-68
2022/04/26 12:30:38;;;;;;;;;48.75;35.50;;;;;-143.93;100.00;62969.28;5016129;28;8838;-68
2022/04/26 12:33:05;;;;;;;;;42.50;34.75;;;;;-143.93;100.00;62969.28;5015432;28;9566;-68
2022/04/26 12:35:31;;;;;;;;;34.75;32.00;;;;;-143.93;100.00;62969.28;5028515;28;8924;-69
2022/04/26 12:38:09;;;;;;;;;49.75;37.50;;;;;-143.93;100.00;62969.28;4996370;28;8851;-68
2022/04/26 12:40:36;;;;;;;;;43.00;35.50;;;;;-143.93;100.00;62969.28;5004995;28;8805;-68
2022/04/26 12:43:22;;;;;;;;;44.50;34.75;;;;;-143.93;100.00;62969.28;4999826;28;8831;-68
2022/04/26 12:45:57;;;;;;;;;47.25;34.25;;;;;-143.93;100.00;62969.28;4999389;28;8809;-68
2022/04/26 12:51:17;;;;;;;;;44.50;35.00;;;;;-143.93;100.00;62969.28;4999140;28;9738;-68
2022/04/26 12:53:43;;;;;;;;;40.00;32.75;;;;;-143.93;100.00;62969.28;5001891;28;8839;-68
2022/04/26 12:56:10;;;;;;;;;35.50;32.25;;;;;-143.93;100.00;62969.28;4988029;28;8819;-68
2022/04/26 12:58:40;;;;;;;;;40.50;33.25;;;;;-143.93;100.00;62969.28;4992727;28;8837;-68
2022/04/26 13:01:06;;;;;;;;;36.75;30.75;;;;;-143.93;100.00;62969.28;4990960;28;8768;-68
2022/04/26 13:03:33;;;;;;;;;36.50;31.00;;;;;-143.93;100.00;62969.28;4993588;28;9453;-68
2022/04/26 13:06:17;;;;;;;;;35.00;31.50;;;;;-143.93;100.00;62969.28;4998226;28;8812;-68
2022/04/26 13:08:48;;;;;;;;;38.00;32.25;;;;;-143.93;100.00;62969.28;4992814;28;8816;-68
2022/04/26 13:11:17;;;;;;;;;41.75;32.00;;;;;-143.93;100.00;62969.28;5002096;28;8835;-68
2022/04/26 13:13:43;;;;;;;;;35.25;31.50;;;;;-143.93;100.00;62969.28;4992694;28;8885;-68
2022/04/26 13:16:08;;;;;;;;;37.50;32.75;;;;;-143.93;100.00;62969.28;4995699;28;9561;-69
2022/04/26 13:18:34;;;;;;;;;32.50;28.50;;;;;-143.93;100.00;62969.28;4997327;28;8898;-68
2022/04/26 13:21:00;;;;;;;;;36.25;29.25;;;;;-143.93;100.00;62969.28;4998854;28;9664;-69
2022/04/26 13:23:26;;;;;;;;;37.75;30.75;;;;;-143.93;100.00;62969.28;5002745;27;9426;-68
2022/04/26 13:25:52;;;;;;;;;34.75;29.00;;;;;-143.93;100.00;62969.28;4995334;28;8800;-68
2022/04/26 13:28:18;;;;;;;;;33.75;29.50;;;;;-143.93;100.00;62969.28;4999712;28;8843;-68
2022/04/26 13:30:44;;;;;;;;;32.75;27.75;;;;;-143.93;100.00;62969.28;4990400;28;8800;-67
2022/04/26 13:33:10;;;;;;;;;33.00;30.50;;;;;-143.93;100.00;62969.28;5001199;28;8916;-68
2022/04/26 13:35:37;;;;;;;;;29.75;28.25;;;;;-143.93;100.00;62969.28;5002868;28;8991;-68
2022/04/26 13:38:08;;;;;;;;;29.25;26.50;;;;;-143.93;100.00;62969.28;4988641;28;8815;-68
2022/04/26 13:40:34;;;;;;;;;30.00;28.00;;;;;-143.93;100.00;62969.28;5003956;28;8785;-68
2022/04/26 13:42:59;;;;;;;;;30.25;25.75;;;;;-143.93;100.00;62969.28;4992468;28;8858;-68
2022/04/26 13:45:25;;;;;;;;;27.75;25.00;;;;;-143.93;100.00;62969.28;4991782;28;8831;-68
2022/04/26 13:47:51;;;;;;;;;26.25;20.25;;;;;-143.93;100.00;62969.28;5025491;28;9625;-68
2022/04/26 13:50:17;;;;;;;;;32.75;28.75;;;;;-143.93;100.00;62969.28;5002219;27;8801;-68
2022/04/26 13:52:44;;;;;;;;;24.75;19.75;;;;;-143.93;100.00;62969.28;5055053;28;8783;-68
2022/04/26 13:55:09;;;;;;;;;29.50;25.50;;;;;-143.93;100.00;62969.28;5024929;27;8852;-68
2022/04/26 13:57:36;;;;;;;;;27.00;25.75;;;;;-143.93;100.00;62969.28;4995881;28;8831;-69
2022/04/26 14:00:02;;;;;;;;;24.50;22.00;;;;;-143.93;100.00;62969.28;4996514;28;9907;-68
2022/04/26 14:02:29;;;;;;;;;25.25;22.75;;;;;-143.93;100.00;62969.28;5001560;28;8844;-68
2022/04/26 14:04:54;;;;;;;;;31.00;26.50;;;;;-143.93;100.00;62969.28;5000789;28;8897;-68
2022/04/26 14:07:19;;;;;;;;;30.50;26.75;;;;;-143.93;100.00;62969.28;4998700;28;8813;-68
2022/04/26 14:09:45;;;;;;;;;28.00;26.25;;;;;-143.93;100.00;62969.28;4996706;28;11807;-68
2022/04/26 14:12:11;;;;;;;;;25.00;23.50;;;;;-143.93;100.00;62969.28;4998806;28;8821;-68
2022/04/26 14:22:50;;;;;;;;;29.25;25.50;;;;;-143.93;100.00;62969.28;4985302;28;8788;-69
2022/04/26 14:25:16;;;;;;;;;24.25;23.25;;;;;-143.93;100.00;62969.28;4998567;28;8855;-68
2022/04/26 14:27:43;;;;;;;;;25.50;25.00;;;;;-143.93;100.00;62969.28;4994150;28;8867;-68
2022/04/26 14:30:11;;;;;;;;;30.25;23.75;;;;;-143.93;100.00;62969.28;5009047;28;8920;-69
2022/04/26 14:32:36;;;;;;;;;28.50;22.00;;;;;-143.93;100.00;62969.28;5011795;27;8816;-68
2022/04/26 14:35:02;;;;;;;;;23.50;22.25;;;;;-143.93;100.00;62969.28;5001047;28;8833;-68
2022/04/26 14:37:28;;;;;;;;;26.75;22.25;;;;;-143.93;100.00;62969.28;5010264;28;8824;-68
2022/04/26 14:39:54;;;;;;;;;22.75;20.25;;;;;-143.93;100.00;62969.28;4996808;28;8832;-68
2022/04/26 14:42:20;;;;;;;;;21.75;21.00;;;;;-143.93;100.00;62969.28;4997498;28;8833;-68
2022/04/26 14:44:46;;;;;;;;;21.00;19.00;;;;;-143.93;100.00;62969.28;5000033;28;8844;-68
2022/04/26 14:47:12;;;;;;;;;24.75;21.50;;;;;-143.93;100.00;62969.28;4986654;28;8886;-68
2022/04/26 14:49:38;;;;;;;;;17.75;17.25;;;;;-143.93;100.00;62969.28;4998528;28;8789;-68
2022/04/26 14:52:04;;;;;;;;;29.00;24.00;;;;;-143.93;100.00;62969.28;4997256;28;8809;-68
2022/04/26 14:54:29;;;;;;;;;23.00;21.00;;;;;-143.93;100.00;62969.28;4995977;28;8837;-68
2022/04/26 14:56:55;;;;;;;;;24.75;23.25;;;;;-143.93;100.00;62969.28;4996509;28;8914;-68
2022/04/26 14:59:22;;;;;;;;;19.00;18.00;;;;;-143.93;100.00;62969.28;5020048;28;8829;-68
2022/04/26 15:01:49;;;;;;;;;29.75;24.00;;;;;-143.93;100.00;62969.28;4999645;28;8820;-68
2022/04/26 15:04:19;;;;;;;;;22.00;20.25;;;;;-143.93;100.00;62969.28;4997354;28;8847;-68
2022/04/26 15:06:45;;;;;;;;;22.75;21.25;;;;;-143.93;100.00;62969.28;4997215;28;8813;-67
2022/04/26 15:17:40;;;;;;;;;16.25;16.25;;;;;-143.93;100.00;62969.28;5080809;28;8809;-68
2022/04/26 15:20:07;;;;;;;;;16.75;15.25;;;;;-143.93;100.00;62969.28;5065766;28;8777;-68
2022/04/26 15:22:32;;;;;;;;;20.25;17.75;;;;;-143.93;100.00;62969.28;5066075;28;8835;-68